Main page
METAR-TAF:

METAR-TAF

Airports :

Xi'an, China

Xi'an Xianyang International Airport

latitude: 34-26N, longitude: 108-45E, elevation: 479 m

Current weather observation

The report was made 41 minutes ago, at 11:00 UTC
Wind 4 kt from the North
Temperature 21°C
Humidity 56%
Pressure 1014 hPa
Visibility 10 km or more
no clouds below 1500 m and no cumulonimbus

METAR: ZLXY 261100Z 36002MPS CAVOK 21/12 Q1014 NOSIG

Time: 19:41 (11:41 UTC)

Forecast

The report was made 2 hours and 35 minutes ago, at 09:06 UTC
Forecast valid from 26 at 12 UTC to 27 at 12 UTC
Wind 6 kt from the Southwest
Visibility: 6000 m

TAF: ZLXY 260906Z 2612/2712 23003MPS 6000 NSC TX28/2708Z TN12/2623Z

Weather observations and forecasts of more than 4000 airports (METAR and TAF reports).

The available stations are represented by yellow and red dots on the map.

Hover mouse over dot to see the name of the station.

Then click to see weather observations and forecasts.

To change the map : click on the green buttons with a black cross to zoom in, on the green button with a dash to zoom out, or on the green arrows for adjacent maps.


METAR-TAF: